sensor_id;sensor_type;location;lat;lon;timestamp;pressure;altitude;pressure_sealevel;temperature;humidity
54270;BME280;40181;51.560;13.000;2023-02-03T00:02:10;101398.06;;;2.42;100.00
54270;BME280;40181;51.560;13.000;2023-02-03T00:04:39;101388.59;;;2.57;100.00
54270;BME280;40181;51.560;13.000;2023-02-03T00:07:09;101388.16;;;2.49;100.00
54270;BME280;40181;51.560;13.000;2023-02-03T00:09:42;101385.91;;;2.56;100.00
54270;BME280;40181;51.560;13.000;2023-02-03T00:12:11;101378.59;;;2.63;100.00
54270;BME280;40181;51.560;13.000;2023-02-03T00:14:41;101369.91;;;2.63;100.00
54270;BME280;40181;51.560;13.000;2023-02-03T00:17:10;101365.78;;;2.67;100.00
54270;BME280;40181;51.560;13.000;2023-02-03T00:19:39;101359.25;;;2.58;100.00
54270;BME280;40181;51.560;13.000;2023-02-03T00:22:08;101352.13;;;2.54;100.00
54270;BME280;40181;51.560;13.000;2023-02-03T00:24:37;101351.91;;;2.51;100.00
54270;BME280;40181;51.560;13.000;2023-02-03T00:27:09;101339.59;;;2.47;100.00
54270;BME280;40181;51.560;13.000;2023-02-03T00:29:38;101330.44;;;2.24;100.00
54270;BME280;40181;51.560;13.000;2023-02-03T00:32:07;101330.16;;;2.19;100.00
54270;BME280;40181;51.560;13.000;2023-02-03T00:34:36;101330.31;;;2.07;100.00
54270;BME280;40181;51.560;13.000;2023-02-03T00:37:05;101324.19;;;2.35;100.00
54270;BME280;40181;51.560;13.000;2023-02-03T00:39:35;101323.34;;;2.06;100.00
54270;BME280;40181;51.560;13.000;2023-02-03T00:42:05;101321.28;;;2.00;100.00
54270;BME280;40181;51.560;13.000;2023-02-03T00:44:36;101317.53;;;2.10;100.00
54270;BME280;40181;51.560;13.000;2023-02-03T00:47:05;101316.38;;;2.20;100.00
54270;BME280;40181;51.560;13.000;2023-02-03T00:49:35;101312.72;;;2.16;100.00
54270;BME280;40181;51.560;13.000;2023-02-03T00:52:04;101308.78;;;2.08;100.00
54270;BME280;40181;51.560;13.000;2023-02-03T00:54:33;101290.88;;;1.98;100.00
54270;BME280;40181;51.560;13.000;2023-02-03T00:57:02;101291.97;;;2.01;100.00
54270;BME280;40181;51.560;13.000;2023-02-03T00:59:31;101279.44;;;1.94;100.00
54270;BME280;40181;51.560;13.000;2023-02-03T01:02:03;101262.66;;;2.17;100.00
54270;BME280;40181;51.560;13.000;2023-02-03T01:04:32;101263.56;;;2.03;100.00
54270;BME280;40181;51.560;13.000;2023-02-03T01:07:01;101263.69;;;1.76;100.00
54270;BME280;40181;51.560;13.000;2023-02-03T01:09:32;101255.78;;;2.03;100.00
54270;BME280;40181;51.560;13.000;2023-02-03T01:12:02;101257.31;;;1.71;100.00
54270;BME280;40181;51.560;13.000;2023-02-03T01:14:31;101241.88;;;1.72;100.00
54270;BME280;40181;51.560;13.000;2023-02-03T01:17:03;101240.28;;;1.74;100.00
54270;BME280;40181;51.560;13.000;2023-02-03T01:19:32;101258.38;;;1.59;100.00
54270;BME280;40181;51.560;13.000;2023-02-03T01:22:01;101233.63;;;1.64;100.00
54270;BME280;40181;51.560;13.000;2023-02-03T01:24:30;101229.38;;;1.80;100.00
54270;BME280;40181;51.560;13.000;2023-02-03T01:26:59;101216.69;;;1.70;100.00
54270;BME280;40181;51.560;13.000;2023-02-03T01:29:30;101234.41;;;1.92;100.00
54270;BME280;40181;51.560;13.000;2023-02-03T01:31:59;101202.94;;;1.86;100.00
54270;BME280;40181;51.560;13.000;2023-02-03T01:34:31;101187.38;;;1.86;100.00
54270;BME280;40181;51.560;13.000;2023-02-03T01:37:00;101192.72;;;1.74;100.00
54270;BME280;40181;51.560;13.000;2023-02-03T01:39:29;101182.69;;;2.09;100.00
54270;BME280;40181;51.560;13.000;2023-02-03T01:41:58;101181.41;;;1.87;100.00
54270;BME280;40181;51.560;13.000;2023-02-03T01:44:37;101176.22;;;1.87;100.00
54270;BME280;40181;51.560;13.000;2023-02-03T01:47:16;101167.19;;;1.65;100.00
54270;BME280;40181;51.560;13.000;2023-02-03T01:49:55;101134.50;;;1.82;100.00
54270;BME280;40181;51.560;13.000;2023-02-03T01:52:37;101133.34;;;1.77;100.00
54270;BME280;40181;51.560;13.000;2023-02-03T01:55:11;101150.41;;;1.88;100.00
54270;BME280;40181;51.560;13.000;2023-02-03T01:57:46;101126.91;;;1.85;100.00
54270;BME280;40181;51.560;13.000;2023-02-03T02:00:19;101141.13;;;1.92;100.00
54270;BME280;40181;51.560;13.000;2023-02-03T02:02:51;101138.69;;;1.65;100.00
54270;BME280;40181;51.560;13.000;2023-02-03T02:05:24;101131.13;;;1.98;100.00
54270;BME280;40181;51.560;13.000;2023-02-03T02:07:58;101141.94;;;1.91;100.00
54270;BME280;40181;51.560;13.000;2023-02-03T02:10:28;101117.59;;;1.89;100.00
54270;BME280;40181;51.560;13.000;2023-02-03T02:13:00;101094.38;;;1.90;100.00
54270;BME280;40181;51.560;13.000;2023-02-03T02:15:36;101073.91;;;1.95;100.00
54270;BME280;40181;51.560;13.000;2023-02-03T02:18:24;101083.81;;;2.02;100.00
54270;BME280;40181;51.560;13.000;2023-02-03T02:21:27;101085.78;;;1.91;100.00
54270;BME280;40181;51.560;13.000;2023-02-03T02:24:21;101065.88;;;1.90;100.00
54270;BME280;40181;51.560;13.000;2023-02-03T02:27:03;101076.53;;;1.80;100.00
54270;BME280;40181;51.560;13.000;2023-02-03T02:30:17;101066.50;;;2.01;100.00
54270;BME280;40181;51.560;13.000;2023-02-03T02:33:10;101056.28;;;2.04;100.00
54270;BME280;40181;51.560;13.000;2023-02-03T02:35:56;101045.41;;;1.95;100.00
54270;BME280;40181;51.560;13.000;2023-02-03T02:38:39;101033.66;;;2.02;100.00
54270;BME280;40181;51.560;13.000;2023-02-03T02:41:17;101027.56;;;2.16;100.00
54270;BME280;40181;51.560;13.000;2023-02-03T02:43:56;101016.78;;;2.09;100.00
54270;BME280;40181;51.560;13.000;2023-02-03T02:46:31;101010.59;;;2.06;100.00
54270;BME280;40181;51.560;13.000;2023-02-03T02:49:09;101010.59;;;2.21;100.00
54270;BME280;40181;51.560;13.000;2023-02-03T02:51:42;101008.81;;;2.05;100.00
54270;BME280;40181;51.560;13.000;2023-02-03T02:54:15;100998.13;;;2.31;100.00
54270;BME280;40181;51.560;13.000;2023-02-03T02:56:50;101001.13;;;2.39;100.00
54270;BME280;40181;51.560;13.000;2023-02-03T02:59:22;100996.16;;;2.43;100.00
54270;BME280;40181;51.560;13.000;2023-02-03T03:01:51;100980.72;;;2.45;100.00
54270;BME280;40181;51.560;13.000;2023-02-03T03:04:25;100975.75;;;2.49;100.00
54270;BME280;40181;51.560;13.000;2023-02-03T03:06:58;100978.75;;;2.57;100.00
54270;BME280;40181;51.560;13.000;2023-02-03T03:09:33;100982.31;;;2.59;100.00
54270;BME280;40181;51.560;13.000;2023-02-03T03:12:07;100972.94;;;2.61;100.00
54270;BME280;40181;51.560;13.000;2023-02-03T03:14:43;100981.59;;;2.62;100.00
54270;BME280;40181;51.560;13.000;2023-02-03T03:17:18;100963.81;;;2.70;100.00
54270;BME280;40181;51.560;13.000;2023-02-03T03:19:55;100960.59;;;2.74;100.00
54270;BME280;40181;51.560;13.000;2023-02-03T03:22:29;100955.88;;;2.83;100.00
54270;BME280;40181;51.560;13.000;2023-02-03T03:25:05;100964.03;;;2.91;100.00
54270;BME280;40181;51.560;13.000;2023-02-03T03:27:41;100964.03;;;2.91;100.00
54270;BME280;40181;51.560;13.000;2023-02-03T03:30:17;100976.84;;;3.04;100.00
54270;BME280;40181;51.560;13.000;2023-02-03T03:32:49;100971.38;;;3.16;100.00
54270;BME280;40181;51.560;13.000;2023-02-03T03:35:22;100955.44;;;3.27;100.00
54270;BME280;40181;51.560;13.000;2023-02-03T03:37:56;100955.06;;;3.37;100.00
54270;BME280;40181;51.560;13.000;2023-02-03T03:40:32;100936.75;;;3.52;100.00
54270;BME280;40181;51.560;13.000;2023-02-03T03:43:10;100928.31;;;3.56;100.00
54270;BME280;40181;51.560;13.000;2023-02-03T03:45:46;100911.06;;;3.58;100.00
54270;BME280;40181;51.560;13.000;2023-02-03T03:48:22;100908.78;;;3.65;100.00
54270;BME280;40181;51.560;13.000;2023-02-03T03:51:01;100906.19;;;3.65;100.00
54270;BME280;40181;51.560;13.000;2023-02-03T03:53:35;100907.56;;;3.76;100.00
54270;BME280;40181;51.560;13.000;2023-02-03T03:56:10;100910.06;;;3.74;100.00
54270;BME280;40181;51.560;13.000;2023-02-03T03:58:45;100899.81;;;3.78;100.00
54270;BME280;40181;51.560;13.000;2023-02-03T04:01:17;100910.94;;;3.93;100.00
54270;BME280;40181;51.560;13.000;2023-02-03T04:03:47;100910.41;;;4.00;100.00
54270;BME280;40181;51.560;13.000;2023-02-03T04:06:22;100906.31;;;4.06;100.00
54270;BME280;40181;51.560;13.000;2023-02-03T04:08:51;100891.03;;;4.13;100.00
54270;BME280;40181;51.560;13.000;2023-02-03T04:11:20;100886.94;;;4.19;100.00
54270;BME280;40181;51.560;13.000;2023-02-03T04:14:02;100880.94;;;4.20;100.00
54270;BME280;40181;51.560;13.000;2023-02-03T04:16:31;100885.34;;;4.22;100.00
54270;BME280;40181;51.560;13.000;2023-02-03T04:19:00;100892.41;;;4.25;100.00
54270;BME280;40181;51.560;13.000;2023-02-03T04:21:32;100900.69;;;4.36;100.00
54270;BME280;40181;51.560;13.000;2023-02-03T04:24:01;100900.78;;;4.37;100.00
54270;BME280;40181;51.560;13.000;2023-02-03T04:26:30;100888.75;;;4.41;100.00
54270;BME280;40181;51.560;13.000;2023-02-03T04:28:59;100895.63;;;4.39;100.00
54270;BME280;40181;51.560;13.000;2023-02-03T04:31:28;100895.16;;;4.48;100.00
54270;BME280;40181;51.560;13.000;2023-02-03T04:33:57;100890.91;;;4.50;100.00
54270;BME280;40181;51.560;13.000;2023-02-03T04:36:26;100900.41;;;4.49;100.00
54270;BME280;40181;51.560;13.000;2023-02-03T04:38:58;100890.28;;;4.55;100.00
54270;BME280;40181;51.560;13.000;2023-02-03T04:41:27;100899.09;;;4.59;100.00
54270;BME280;40181;51.560;13.000;2023-02-03T04:43:56;100870.69;;;4.64;100.00
54270;BME280;40181;51.560;13.000;2023-02-03T04:46:25;100874.31;;;4.67;100.00
54270;BME280;40181;51.560;13.000;2023-02-03T04:48:54;100870.75;;;4.65;100.00
54270;BME280;40181;51.560;13.000;2023-02-03T04:51:23;100856.28;;;4.72;100.00
54270;BME280;40181;51.560;13.000;2023-02-03T04:53:52;100831.91;;;4.70;100.00
54270;BME280;40181;51.560;13.000;2023-02-03T04:56:23;100839.00;;;4.74;100.00
54270;BME280;40181;51.560;13.000;2023-02-03T04:58:52;100835.75;;;4.80;100.00
54270;BME280;40181;51.560;13.000;2023-02-03T05:01:21;100844.53;;;4.82;100.00
54270;BME280;40181;51.560;13.000;2023-02-03T05:03:50;100836.97;;;4.88;100.00
54270;BME280;40181;51.560;13.000;2023-02-03T05:06:21;100845.59;;;4.87;100.00
54270;BME280;40181;51.560;13.000;2023-02-03T05:08:53;100834.25;;;4.85;100.00
54270;BME280;40181;51.560;13.000;2023-02-03T05:11:25;100819.66;;;4.89;100.00
54270;BME280;40181;51.560;13.000;2023-02-03T05:13:55;100806.66;;;4.90;100.00
54270;BME280;40181;51.560;13.000;2023-02-03T05:16:24;100790.19;;;4.90;100.00
54270;BME280;40181;51.560;13.000;2023-02-03T05:18:53;100804.25;;;4.95;100.00
54270;BME280;40181;51.560;13.000;2023-02-03T05:21:22;100798.47;;;5.02;100.00
54270;BME280;40181;51.560;13.000;2023-02-03T05:23:51;100809.97;;;5.07;100.00
54270;BME280;40181;51.560;13.000;2023-02-03T05:26:20;100796.88;;;5.06;100.00
54270;BME280;40181;51.560;13.000;2023-02-03T05:28:52;100804.88;;;5.10;100.00
54270;BME280;40181;51.560;13.000;2023-02-03T05:31:21;100791.16;;;5.15;100.00
54270;BME280;40181;51.560;13.000;2023-02-03T05:33:50;100796.41;;;5.16;100.00
54270;BME280;40181;51.560;13.000;2023-02-03T05:36:19;100795.81;;;5.23;100.00
54270;BME280;40181;51.560;13.000;2023-02-03T05:38:48;100787.44;;;5.31;100.00
54270;BME280;40181;51.560;13.000;2023-02-03T05:41:17;100781.31;;;5.30;100.00
54270;BME280;40181;51.560;13.000;2023-02-03T05:44:02;100768.28;;;5.30;100.00
54270;BME280;40181;51.560;13.000;2023-02-03T05:46:31;100780.63;;;5.34;100.00
54270;BME280;40181;51.560;13.000;2023-02-03T05:49:00;100780.69;;;5.36;100.00
54270;BME280;40181;51.560;13.000;2023-02-03T05:51:29;100754.81;;;5.40;100.00
54270;BME280;40181;51.560;13.000;2023-02-03T05:53:58;100759.22;;;5.43;100.00
54270;BME280;40181;51.560;13.000;2023-02-03T05:56:27;100747.88;;;5.41;100.00
54270;BME280;40181;51.560;13.000;2023-02-03T05:58:56;100760.31;;;5.48;100.00
54270;BME280;40181;51.560;13.000;2023-02-03T06:01:28;100766.38;;;5.49;100.00
54270;BME280;40181;51.560;13.000;2023-02-03T06:03:57;100755.09;;;5.48;100.00
54270;BME280;40181;51.560;13.000;2023-02-03T06:06:26;100742.16;;;5.51;100.00
54270;BME280;40181;51.560;13.000;2023-02-03T06:08:58;100767.38;;;5.52;100.00
54270;BME280;40181;51.560;13.000;2023-02-03T06:11:27;100738.19;;;5.61;100.00
54270;BME280;40181;51.560;13.000;2023-02-03T06:13:58;100731.13;;;5.59;100.00
54270;BME280;40181;51.560;13.000;2023-02-03T06:16:33;100741.03;;;5.67;100.00
54270;BME280;40181;51.560;13.000;2023-02-03T06:19:02;100735.75;;;5.66;100.00
54270;BME280;40181;51.560;13.000;2023-02-03T06:21:31;100741.03;;;5.67;100.00
54270;BME280;40181;51.560;13.000;2023-02-03T06:24:00;100718.34;;;5.65;100.00
54270;BME280;40181;51.560;13.000;2023-02-03T06:26:29;100728.75;;;5.65;100.00
54270;BME280;40181;51.560;13.000;2023-02-03T06:28:58;100707.19;;;5.69;100.00
54270;BME280;40181;51.560;13.000;2023-02-03T06:31:27;100708.25;;;5.74;100.00
54270;BME280;40181;51.560;13.000;2023-02-03T06:33:59;100703.81;;;5.72;100.00
54270;BME280;40181;51.560;13.000;2023-02-03T06:36:28;100693.47;;;5.75;100.00
54270;BME280;40181;51.560;13.000;2023-02-03T06:38:57;100697.13;;;5.80;100.00
54270;BME280;40181;51.560;13.000;2023-02-03T06:41:26;100693.69;;;5.81;100.00
54270;BME280;40181;51.560;13.000;2023-02-03T06:43:55;100701.44;;;5.79;100.00
54270;BME280;40181;51.560;13.000;2023-02-03T06:46:24;100718.00;;;5.80;100.00
54270;BME280;40181;51.560;13.000;2023-02-03T06:48:55;100683.16;;;5.78;100.00
54270;BME280;40181;51.560;13.000;2023-02-03T06:51:26;100693.91;;;5.87;100.00
54270;BME280;40181;51.560;13.000;2023-02-03T06:53:55;100693.94;;;5.89;100.00
54270;BME280;40181;51.560;13.000;2023-02-03T06:56:25;100677.44;;;5.88;100.00
54270;BME280;40181;51.560;13.000;2023-02-03T06:58:55;100687.25;;;5.95;100.00
54270;BME280;40181;51.560;13.000;2023-02-03T07:01:24;100673.16;;;5.90;100.00
54270;BME280;40181;51.560;13.000;2023-02-03T07:03:53;100667.38;;;5.99;100.00
54270;BME280;40181;51.560;13.000;2023-02-03T07:06:27;100685.31;;;5.90;100.00
54270;BME280;40181;51.560;13.000;2023-02-03T07:08:59;100682.75;;;5.91;100.00
54270;BME280;40181;51.560;13.000;2023-02-03T07:11:29;100663.56;;;5.89;100.00
54270;BME280;40181;51.560;13.000;2023-02-03T07:13:58;100675.44;;;6.05;100.00
54270;BME280;40181;51.560;13.000;2023-02-03T07:16:28;100674.38;;;6.00;100.00
54270;BME280;40181;51.560;13.000;2023-02-03T07:18:58;100667.72;;;6.08;100.00
54270;BME280;40181;51.560;13.000;2023-02-03T07:21:30;100665.97;;;6.09;100.00
54270;BME280;40181;51.560;13.000;2023-02-03T07:23:59;100672.88;;;6.07;100.00
54270;BME280;40181;51.560;13.000;2023-02-03T07:26:29;100685.75;;;6.02;100.00
54270;BME280;40181;51.560;13.000;2023-02-03T07:28:58;100688.75;;;6.13;100.00
54270;BME280;40181;51.560;13.000;2023-02-03T07:31:27;100654.69;;;6.08;100.00
54270;BME280;40181;51.560;13.000;2023-02-03T07:33:56;100677.56;;;6.17;100.00
54270;BME280;40181;51.560;13.000;2023-02-03T07:36:25;100668.81;;;6.15;100.00
54270;BME280;40181;51.560;13.000;2023-02-03T07:38:57;100665.41;;;6.18;100.00
54270;BME280;40181;51.560;13.000;2023-02-03T07:41:26;100675.94;;;6.21;100.00
54270;BME280;40181;51.560;13.000;2023-02-03T07:43:55;100698.53;;;6.20;100.00
54270;BME280;40181;51.560;13.000;2023-02-03T07:46:24;100675.03;;;6.20;100.00
54270;BME280;40181;51.560;13.000;2023-02-03T07:48:53;100663.84;;;6.23;100.00
54270;BME280;40181;51.560;13.000;2023-02-03T07:51:22;100652.25;;;6.15;100.00
54270;BME280;40181;51.560;13.000;2023-02-03T07:53:51;100647.72;;;6.09;100.00
54270;BME280;40181;51.560;13.000;2023-02-03T07:56:23;100653.50;;;6.00;100.00
54270;BME280;40181;51.560;13.000;2023-02-03T07:58:52;100664.72;;;5.98;100.00
54270;BME280;40181;51.560;13.000;2023-02-03T08:01:21;100633.13;;;5.88;100.00
54270;BME280;40181;51.560;13.000;2023-02-03T08:03:50;100644.47;;;5.90;100.00
54270;BME280;40181;51.560;13.000;2023-02-03T08:06:19;100631.38;;;5.89;100.00
54270;BME280;40181;51.560;13.000;2023-02-03T08:08:48;100632.22;;;5.88;100.00
54270;BME280;40181;51.560;13.000;2023-02-03T08:11:18;100617.63;;;5.93;100.00
54270;BME280;40181;51.560;13.000;2023-02-03T08:13:49;100618.00;;;5.78;100.00
54270;BME280;40181;51.560;13.000;2023-02-03T08:16:19;100602.34;;;5.78;100.00
54270;BME280;40181;51.560;13.000;2023-02-03T08:18:48;100598.00;;;5.78;100.00
54270;BME280;40181;51.560;13.000;2023-02-03T08:21:17;100593.16;;;5.89;100.00
54270;BME280;40181;51.560;13.000;2023-02-03T08:23:46;100592.84;;;5.80;100.00
54270;BME280;40181;51.560;13.000;2023-02-03T08:26:15;100606.97;;;5.87;100.00
54270;BME280;40181;51.560;13.000;2023-02-03T08:28:50;100593.94;;;5.87;100.00
54270;BME280;40181;51.560;13.000;2023-02-03T08:31:19;100577.38;;;5.85;100.00
54270;BME280;40181;51.560;13.000;2023-02-03T08:33:48;100578.91;;;5.79;100.00
54270;BME280;40181;51.560;13.000;2023-02-03T08:36:17;100559.97;;;5.85;100.00
54270;BME280;40181;51.560;13.000;2023-02-03T08:38:46;100583.44;;;5.85;100.00
54270;BME280;40181;51.560;13.000;2023-02-03T08:41:16;100555.91;;;5.93;100.00
54270;BME280;40181;51.560;13.000;2023-02-03T08:43:45;100552.38;;;5.91;100.00
54270;BME280;40181;51.560;13.000;2023-02-03T08:46:17;100557.06;;;6.02;100.00
54270;BME280;40181;51.560;13.000;2023-02-03T08:48:46;100542.47;;;6.07;100.00
54270;BME280;40181;51.560;13.000;2023-02-03T08:51:17;100537.25;;;6.07;100.00
54270;BME280;40181;51.560;13.000;2023-02-03T08:53:46;100552.16;;;6.11;100.00
54270;BME280;40181;51.560;13.000;2023-02-03T08:56:16;100534.94;;;6.16;100.00
54270;BME280;40181;51.560;13.000;2023-02-03T08:58:45;100562.59;;;6.11;100.00
54270;BME280;40181;51.560;13.000;2023-02-03T09:01:17;100549.66;;;6.14;100.00
54270;BME280;40181;51.560;13.000;2023-02-03T09:03:46;100530.44;;;6.12;100.00
54270;BME280;40181;51.560;13.000;2023-02-03T09:06:15;100531.19;;;6.08;100.00
54270;BME280;40181;51.560;13.000;2023-02-03T09:08:44;100518.06;;;6.05;100.00
54270;BME280;40181;51.560;13.000;2023-02-03T09:11:16;100514.72;;;6.09;100.00
54270;BME280;40181;51.560;13.000;2023-02-03T09:13:46;100492.78;;;6.02;100.00
54270;BME280;40181;51.560;13.000;2023-02-03T09:16:18;100498.06;;;6.04;100.00
54270;BME280;40181;51.560;13.000;2023-02-03T09:18:48;100486.06;;;6.11;100.00
54270;BME280;40181;51.560;13.000;2023-02-03T09:21:18;100482.75;;;6.16;100.00
54270;BME280;40181;51.560;13.000;2023-02-03T09:23:47;100474.19;;;6.20;100.00
54270;BME280;40181;51.560;13.000;2023-02-03T09:26:16;100503.91;;;6.26;100.00
54270;BME280;40181;51.560;13.000;2023-02-03T09:28:45;100473.72;;;6.34;100.00
54270;BME280;40181;51.560;13.000;2023-02-03T09:31:17;100461.66;;;6.38;100.00
54270;BME280;40181;51.560;13.000;2023-02-03T09:33:46;100466.09;;;6.42;100.00
54270;BME280;40181;51.560;13.000;2023-02-03T09:36:15;100462.09;;;6.53;100.00
54270;BME280;40181;51.560;13.000;2023-02-03T09:38:46;100473.34;;;6.52;100.00
54270;BME280;40181;51.560;13.000;2023-02-03T09:41:24;100457.66;;;6.50;100.00
54270;BME280;40181;51.560;13.000;2023-02-03T09:44:10;100476.09;;;6.57;100.00
54270;BME280;40181;51.560;13.000;2023-02-03T09:46:47;100464.97;;;6.64;100.00
54270;BME280;40181;51.560;13.000;2023-02-03T09:49:21;100450.00;;;6.57;100.00
54270;BME280;40181;51.560;13.000;2023-02-03T09:51:56;100451.78;;;6.58;100.00
54270;BME280;40181;51.560;13.000;2023-02-03T09:54:35;100442.03;;;6.52;100.00
54270;BME280;40181;51.560;13.000;2023-02-03T09:57:12;100448.88;;;6.47;100.00
54270;BME280;40181;51.560;13.000;2023-02-03T09:59:45;100448.81;;;6.45;100.00
54270;BME280;40181;51.560;13.000;2023-02-03T10:02:32;100459.16;;;6.42;100.00
54270;BME280;40181;51.560;13.000;2023-02-03T10:05:18;100440.78;;;6.39;100.00
54270;BME280;40181;51.560;13.000;2023-02-03T10:07:56;100421.88;;;6.46;100.00
54270;BME280;40181;51.560;13.000;2023-02-03T10:10:36;100436.56;;;6.43;100.00
54270;BME280;40181;51.560;13.000;2023-02-03T10:13:17;100427.91;;;6.44;100.00
54270;BME280;40181;51.560;13.000;2023-02-03T10:16:10;100434.97;;;6.48;100.00
54270;BME280;40181;51.560;13.000;2023-02-03T10:18:52;100419.19;;;6.43;100.00
54270;BME280;40181;51.560;13.000;2023-02-03T10:21:32;100419.38;;;6.49;100.00
54270;BME280;40181;51.560;13.000;2023-02-03T10:24:08;100416.75;;;6.49;100.00
54270;BME280;40181;51.560;13.000;2023-02-03T10:26:41;100408.34;;;6.60;100.00
54270;BME280;40181;51.560;13.000;2023-02-03T10:29:17;100403.09;;;6.60;100.00
54270;BME280;40181;51.560;13.000;2023-02-03T10:31:47;100402.44;;;6.67;100.00
54270;BME280;40181;51.560;13.000;2023-02-03T10:34:20;100410.22;;;6.66;100.00
54270;BME280;40181;51.560;13.000;2023-02-03T10:36:54;100385.09;;;6.69;100.00
54270;BME280;40181;51.560;13.000;2023-02-03T10:39:30;100399.84;;;6.69;100.00
54270;BME280;40181;51.560;13.000;2023-02-03T10:42:10;100406.72;;;6.65;100.00
54270;BME280;40181;51.560;13.000;2023-02-03T10:44:42;100382.38;;;6.66;100.00
54270;BME280;40181;51.560;13.000;2023-02-03T10:47:19;100385.94;;;6.68;100.00
54270;BME280;40181;51.560;13.000;2023-02-03T10:49:57;100386.66;;;6.64;100.00
54270;BME280;40181;51.560;13.000;2023-02-03T10:52:29;100391.81;;;6.61;100.00
54270;BME280;40181;51.560;13.000;2023-02-03T10:55:05;100403.97;;;6.59;100.00
54270;BME280;40181;51.560;13.000;2023-02-03T10:57:35;100421.16;;;6.52;100.00
54270;BME280;40181;51.560;13.000;2023-02-03T11:00:07;100413.19;;;6.47;100.00
54270;BME280;40181;51.560;13.000;2023-02-03T11:02:54;100408.88;;;6.48;100.00
54270;BME280;40181;51.560;13.000;2023-02-03T11:05:27;100405.41;;;6.49;100.00
54270;BME280;40181;51.560;13.000;2023-02-03T11:07:56;100402.63;;;6.43;100.00
54270;BME280;40181;51.560;13.000;2023-02-03T11:10:33;100389.81;;;6.50;100.00
54270;BME280;40181;51.560;13.000;2023-02-03T11:13:15;100392.31;;;6.47;100.00
54270;BME280;40181;51.560;13.000;2023-02-03T11:15:54;100378.41;;;6.47;100.00
54270;BME280;40181;51.560;13.000;2023-02-03T11:18:36;100383.81;;;6.55;100.00
54270;BME280;40181;51.560;13.000;2023-02-03T11:21:12;100387.22;;;6.52;100.00
54270;BME280;40181;51.560;13.000;2023-02-03T11:23:52;100410.72;;;6.52;100.00
54270;BME280;40181;51.560;13.000;2023-02-03T11:26:26;100345.63;;;6.58;100.00
54270;BME280;40181;51.560;13.000;2023-02-03T11:29:00;100329.97;;;6.58;100.00
54270;BME280;40181;51.560;13.000;2023-02-03T11:31:34;100311.69;;;6.58;100.00
54270;BME280;40181;51.560;13.000;2023-02-03T11:34:05;100285.78;;;6.66;100.00
54270;BME280;40181;51.560;13.000;2023-02-03T11:36:45;100278.06;;;6.69;100.00
54270;BME280;40181;51.560;13.000;2023-02-03T11:39:26;100245.13;;;6.76;100.00
54270;BME280;40181;51.560;13.000;2023-02-03T11:42:00;100233.09;;;6.83;100.00
54270;BME280;40181;51.560;13.000;2023-02-03T11:44:29;100255.91;;;6.90;100.00
54270;BME280;40181;51.560;13.000;2023-02-03T11:47:02;100284.75;;;6.95;100.00
54270;BME280;40181;51.560;13.000;2023-02-03T11:50:00;100279.66;;;7.01;100.00
54270;BME280;40181;51.560;13.000;2023-02-03T11:52:50;100291.94;;;7.05;100.00
54270;BME280;40181;51.560;13.000;2023-02-03T11:55:43;100310.22;;;7.03;100.00
54270;BME280;40181;51.560;13.000;2023-02-03T11:58:44;100295.50;;;7.07;100.00
54270;BME280;40181;51.560;13.000;2023-02-03T12:05:05;100308.44;;;7.02;100.00
54270;BME280;40181;51.560;13.000;2023-02-03T12:08:04;100286.06;;;7.14;100.00
54270;BME280;40181;51.560;13.000;2023-02-03T12:10:46;100298.31;;;7.16;100.00
54270;BME280;40181;51.560;13.000;2023-02-03T12:13:33;100313.03;;;7.13;100.00
54270;BME280;40181;51.560;13.000;2023-02-03T12:16:20;100310.44;;;7.13;100.00
54270;BME280;40181;51.560;13.000;2023-02-03T12:19:04;100343.38;;;7.08;100.00
54270;BME280;40181;51.560;13.000;2023-02-03T12:21:42;100375.50;;;7.03;100.00
54270;BME280;40181;51.560;13.000;2023-02-03T12:24:23;100369.09;;;6.90;100.00
54270;BME280;40181;51.560;13.000;2023-02-03T12:27:12;100396.56;;;6.76;100.00
54270;BME280;40181;51.560;13.000;2023-02-03T12:29:51;100384.66;;;6.86;100.00
54270;BME280;40181;51.560;13.000;2023-02-03T12:32:29;100386.06;;;6.74;100.00
54270;BME280;40181;51.560;13.000;2023-02-03T12:35:12;100376.34;;;6.69;100.00
54270;BME280;40181;51.560;13.000;2023-02-03T12:37:48;100375.25;;;6.59;100.00
54270;BME280;40181;51.560;13.000;2023-02-03T12:40:29;100376.47;;;6.72;100.00
54270;BME280;40181;51.560;13.000;2023-02-03T12:43:18;100375.72;;;6.77;100.00
54270;BME280;40181;51.560;13.000;2023-02-03T12:45:53;100384.31;;;6.73;100.00
54270;BME280;40181;51.560;13.000;2023-02-03T12:48:30;100383.50;;;6.76;100.00
54270;BME280;40181;51.560;13.000;2023-02-03T12:51:03;100370.50;;;6.77;100.00
54270;BME280;40181;51.560;13.000;2023-02-03T12:53:40;100383.88;;;6.90;100.00
54270;BME280;40181;51.560;13.000;2023-02-03T12:56:21;100400.25;;;6.84;100.00
54270;BME280;40181;51.560;13.000;2023-02-03T12:58:57;100409.00;;;6.85;100.00
54270;BME280;40181;51.560;13.000;2023-02-03T13:01:32;100392.66;;;6.94;96.90
54270;BME280;40181;51.560;13.000;2023-02-03T13:04:07;100417.75;;;6.87;95.05
54270;BME280;40181;51.560;13.000;2023-02-03T13:06:46;100407.97;;;6.80;93.66
54270;BME280;40181;51.560;13.000;2023-02-03T13:09:24;100401.84;;;6.77;91.98
54270;BME280;40181;51.560;13.000;2023-02-03T13:12:05;100391.34;;;6.76;88.65
54270;BME280;40181;51.560;13.000;2023-02-03T13:14:41;100406.09;;;6.74;87.87
54270;BME280;40181;51.560;13.000;2023-02-03T13:17:14;100416.59;;;6.75;88.94